createdAt,value
2022-08-10T00:01:02.333Z,72.07
2022-08-10T00:03:07.975Z,72.04
2022-08-10T00:05:11.780Z,72.40
2022-08-10T00:07:16.912Z,71.87
2022-08-10T00:09:20.485Z,71.53
2022-08-10T00:11:24.360Z,71.37
2022-08-10T00:13:28.349Z,71.32
2022-08-10T00:15:52.353Z,70.90
2022-08-10T00:17:56.355Z,71.40
2022-08-10T00:20:03.199Z,70.72
2022-08-10T00:22:08.252Z,71.11
2022-08-10T00:24:13.348Z,71.10
2022-08-10T00:26:17.169Z,70.90
2022-08-10T00:28:22.107Z,71.18
2022-08-10T00:30:25.817Z,70.83
2022-08-10T00:32:29.379Z,70.87
2022-08-10T00:34:34.869Z,71.28
2022-08-10T00:36:38.551Z,71.00
2022-08-10T00:38:42.656Z,71.03
2022-08-10T00:40:47.816Z,70.96
2022-08-10T00:42:51.491Z,71.08
2022-08-10T00:44:55.262Z,71.28
2022-08-10T00:47:01.246Z,71.39
2022-08-10T00:49:05.004Z,71.12
2022-08-10T00:51:08.766Z,71.60
2022-08-10T00:53:12.523Z,71.91
2022-08-10T00:55:16.295Z,71.91
2022-08-10T00:57:22.279Z,71.91
2022-08-10T00:59:26.166Z,72.21
2022-08-10T01:02:08.498Z,72.52
2022-08-10T01:04:54.625Z,72.46
2022-08-10T01:06:29.545Z,72.51
2022-08-10T01:08:40.498Z,72.65
2022-08-10T01:10:54.072Z,72.59
2022-08-10T01:13:08.616Z,72.89
2022-08-10T01:15:22.333Z,72.64
2022-08-10T01:17:49.887Z,72.64
2022-08-10T01:20:03.051Z,72.66
2022-08-10T01:22:24.567Z,72.68
2022-08-10T01:25:05.405Z,72.57
2022-08-10T01:27:26.998Z,72.81
2022-08-10T01:29:58.201Z,72.67
2022-08-10T01:32:07.174Z,72.73
2022-08-10T01:34:19.033Z,72.77
2022-08-10T01:36:32.441Z,73.06
2022-08-10T01:38:38.914Z,72.71
2022-08-10T01:40:51.005Z,73.22
2022-08-10T01:43:07.838Z,73.05
2022-08-10T01:45:17.201Z,72.95
2022-08-10T01:47:42.759Z,73.00
2022-08-10T01:49:48.414Z,73.17
2022-08-10T01:51:55.779Z,73.26
2022-08-10T01:54:02.726Z,73.47
2022-08-10T01:56:09.018Z,74.31
2022-08-10T01:58:15.278Z,74.51
2022-08-10T02:00:21.305Z,74.04
2022-08-10T02:02:27.027Z,74.34
2022-08-10T02:04:32.643Z,74.33
2022-08-10T02:06:41.408Z,74.39
2022-08-10T02:08:47.756Z,74.36
2022-08-10T02:11:01.474Z,74.36
2022-08-10T02:13:05.961Z,74.52
2022-08-10T02:15:14.407Z,74.33
2022-08-10T02:18:00.353Z,73.98
2022-08-10T02:19:47.760Z,74.01
2022-08-10T02:22:36.818Z,74.33
2022-08-10T02:24:21.582Z,74.56
2022-08-10T02:26:26.005Z,74.72
2022-08-10T02:28:32.103Z,75.02
2022-08-10T02:30:37.866Z,74.92
2022-08-10T02:32:44.595Z,75.22
2022-08-10T02:34:58.808Z,75.07
2022-08-10T02:37:10.918Z,74.96
2022-08-10T02:39:18.865Z,75.09
2022-08-10T02:45:12.666Z,74.88
2022-08-10T02:45:25.683Z,74.33
2022-08-10T02:46:40.902Z,74.18
2022-08-10T02:48:48.574Z,74.30
2022-08-10T02:50:59.085Z,74.42
2022-08-10T02:53:06.893Z,74.21
2022-08-10T02:55:18.738Z,74.40
2022-08-10T02:57:27.138Z,74.64
2022-08-10T02:59:40.318Z,74.64
2022-08-10T03:01:46.556Z,74.87
2022-08-10T03:03:57.492Z,74.71
2022-08-10T03:06:05.538Z,74.45
2022-08-10T03:08:12.072Z,74.48
2022-08-10T03:10:18.946Z,74.71
2022-08-10T03:12:38.237Z,74.89
2022-08-10T03:14:43.356Z,75.05
2022-08-10T03:16:48.601Z,74.94
2022-08-10T03:18:55.214Z,75.19
2022-08-10T03:21:00.741Z,75.38
2022-08-10T03:23:06.217Z,75.50
2022-08-10T03:25:11.954Z,75.42
2022-08-10T03:27:17.544Z,75.42
2022-08-10T03:29:22.967Z,75.46
2022-08-10T03:31:28.301Z,75.83
2022-08-10T03:33:36.813Z,75.95
2022-08-10T03:35:42.220Z,76.25
2022-08-10T03:38:24.116Z,76.47
2022-08-10T03:40:45.765Z,76.52
2022-08-10T03:42:53.851Z,76.32
2022-08-10T03:44:59.542Z,76.50
2022-08-10T03:47:16.288Z,76.94
2022-08-10T03:49:21.364Z,76.57
2022-08-10T03:51:28.121Z,77.17
2022-08-10T03:54:04.908Z,77.06
2022-08-10T03:56:29.462Z,76.89
2022-08-10T03:58:21.148Z,76.81
2022-08-10T04:00:25.376Z,76.92
2022-08-10T04:02:46.987Z,77.04
2022-08-10T04:04:52.910Z,77.02
2022-08-10T04:06:59.062Z,77.51
2022-08-10T04:09:03.986Z,77.53
2022-08-10T04:11:07.438Z,77.62
2022-08-10T04:13:10.737Z,77.89
2022-08-10T04:15:14.117Z,77.76
2022-08-10T04:17:17.391Z,77.55
2022-08-10T04:19:45.369Z,77.38
2022-08-10T04:21:56.334Z,77.36
2022-08-10T04:24:04.135Z,77.41
2022-08-10T04:26:08.143Z,77.24
2022-08-10T04:28:13.091Z,77.21
2022-08-10T04:30:16.636Z,77.05
2022-08-10T04:32:22.419Z,77.08
2022-08-10T04:34:31.963Z,77.14
2022-08-10T04:36:36.408Z,77.29
2022-08-10T04:38:41.715Z,77.46
2022-08-10T04:40:47.620Z,77.52
2022-08-10T04:42:51.111Z,77.21
2022-08-10T04:44:54.352Z,77.16
2022-08-10T04:46:59.250Z,77.08
2022-08-10T04:49:02.868Z,76.93
2022-08-10T04:51:10.689Z,76.83
2022-08-10T04:53:14.563Z,76.82
2022-08-10T04:55:17.960Z,76.46
2022-08-10T04:57:22.649Z,76.22
2022-08-10T04:59:25.952Z,76.28
2022-08-10T05:02:21.623Z,76.01
2022-08-10T05:04:34.838Z,76.06
2022-08-10T05:06:15.857Z,75.84
2022-08-10T05:08:19.509Z,75.97
2022-08-10T05:10:23.308Z,75.96
2022-08-10T05:12:28.395Z,76.21
2022-08-10T05:14:31.704Z,76.01
2022-08-10T05:16:35.024Z,76.24
2022-08-10T05:18:38.340Z,75.88
2022-08-10T05:20:41.667Z,75.86
2022-08-10T05:22:46.516Z,75.86
2022-08-10T05:24:49.928Z,75.76
2022-08-10T05:27:00.524Z,75.63
2022-08-10T05:29:15.079Z,75.99
2022-08-10T05:31:23.499Z,75.86
2022-08-10T05:33:27.648Z,75.92
2022-08-10T05:35:55.366Z,75.88
2022-08-10T05:38:12.263Z,75.85
2022-08-10T05:40:18.286Z,75.48
2022-08-10T05:42:21.842Z,75.37
2022-08-10T05:44:26.799Z,75.40
2022-08-10T05:46:30.328Z,75.18
2022-08-10T05:48:53.868Z,74.90
2022-08-10T05:50:57.822Z,74.75
2022-08-10T05:53:39.132Z,74.42
2022-08-10T05:55:25.507Z,73.80
2022-08-10T05:57:31.093Z,73.43
2022-08-10T06:00:32.954Z,72.97
2022-08-10T06:02:31.477Z,72.81
2022-08-10T06:04:34.447Z,72.18
2022-08-10T06:06:39.308Z,71.69
2022-08-10T06:08:44.774Z,71.42
2022-08-10T06:12:23.573Z,71.15
2022-08-10T06:13:34.836Z,70.06
2022-08-10T06:15:58.175Z,68.57
2022-08-10T06:18:03.002Z,67.70
2022-08-10T06:20:07.514Z,67.74
2022-08-10T06:22:13.237Z,66.90
2022-08-10T06:24:18.136Z,64.95
2022-08-10T06:26:28.737Z,61.16
2022-08-10T06:28:37.880Z,57.11
2022-08-10T06:30:42.300Z,54.22
2022-08-10T06:32:48.000Z,51.95
2022-08-10T06:34:54.582Z,49.90
2022-08-10T06:37:00.570Z,48.28
2022-08-10T06:39:29.946Z,46.68
2022-08-10T06:42:14.809Z,43.88
2022-08-10T06:44:01.451Z,43.99
2022-08-10T06:46:08.749Z,42.07
2022-08-10T06:48:22.742Z,41.08
2022-08-10T06:50:44.721Z,40.62
2022-08-10T06:52:51.442Z,40.22
2022-08-10T06:54:57.129Z,39.50
2022-08-10T06:57:18.232Z,38.53
2022-08-10T06:59:27.219Z,38.40
2022-08-10T07:01:36.858Z,38.58
2022-08-10T07:03:47.719Z,37.89
2022-08-10T07:05:53.081Z,37.51
2022-08-10T07:08:00.345Z,36.78
2022-08-10T07:10:03.809Z,36.60
2022-08-10T07:12:10.815Z,36.03
2022-08-10T07:14:18.413Z,35.44
2022-08-10T07:16:28.346Z,35.52
2022-08-10T07:18:33.787Z,35.54
2022-08-10T07:20:39.124Z,35.22
2022-08-10T07:23:54.550Z,34.95
2022-08-10T07:25:10.110Z,34.91
2022-08-10T07:27:14.710Z,34.58
2022-08-10T07:29:52.817Z,34.27
2022-08-10T07:31:57.155Z,34.66
2022-08-10T07:34:03.582Z,34.16
2022-08-10T07:36:11.771Z,33.62
2022-08-10T07:38:19.798Z,33.17
2022-08-10T07:40:25.055Z,33.08
2022-08-10T07:42:31.317Z,32.87
2022-08-10T07:44:36.184Z,33.15
2022-08-10T07:46:42.605Z,33.27
2022-08-10T07:48:49.871Z,33.33
2022-08-10T07:50:58.006Z,33.14
2022-08-10T07:53:04.700Z,32.81
2022-08-10T07:55:13.867Z,33.10
2022-08-10T07:57:30.739Z,33.36
2022-08-10T07:59:39.814Z,33.65
2022-08-10T08:01:50.642Z,33.66
2022-08-10T08:04:05.521Z,33.56
2022-08-10T08:06:15.503Z,33.09
2022-08-10T08:08:22.972Z,33.20
2022-08-10T08:10:29.375Z,33.36
2022-08-10T08:12:36.898Z,33.79
2022-08-10T08:14:45.184Z,34.17
2022-08-10T08:16:53.181Z,34.33
2022-08-10T08:19:24.076Z,34.65
2022-08-10T08:24:04.822Z,35.36
2022-08-10T08:24:06.201Z,36.12
2022-08-10T08:26:15.499Z,37.64
2022-08-10T08:28:20.179Z,38.99
2022-08-10T08:30:26.983Z,39.94
2022-08-10T08:32:34.665Z,40.97
2022-08-10T08:34:40.987Z,41.91
2022-08-10T08:36:46.007Z,42.80
2022-08-10T08:38:51.950Z,43.18
2022-08-10T08:41:02.652Z,43.41
2022-08-10T08:43:32.901Z,43.93
2022-08-10T08:46:01.093Z,44.47
2022-08-10T08:48:39.529Z,44.74
2022-08-10T08:51:01.977Z,45.63
2022-08-10T08:53:22.985Z,45.68
2022-08-10T08:56:05.078Z,45.90
2022-08-10T08:58:22.087Z,46.39
2022-08-10T09:00:37.895Z,46.63
2022-08-10T09:02:55.501Z,46.48
2022-08-10T09:05:08.839Z,46.50
2022-08-10T09:08:00.700Z,46.64
2022-08-10T09:10:16.404Z,46.61
2022-08-10T09:12:39.953Z,46.27
2022-08-10T09:14:53.016Z,46.23
2022-08-10T09:17:04.782Z,45.90
2022-08-10T09:19:19.702Z,45.80
2022-08-10T09:22:12.381Z,45.91
2022-08-10T09:24:20.371Z,45.99
2022-08-10T09:26:25.033Z,45.69
2022-08-10T09:28:37.487Z,45.38
2022-08-10T09:31:10.864Z,45.31
2022-08-10T09:36:23.356Z,44.84
2022-08-10T09:36:25.146Z,45.00
2022-08-10T09:38:25.972Z,44.82
2022-08-10T09:41:00.722Z,44.09
2022-08-10T09:43:26.152Z,43.89
2022-08-10T09:45:41.578Z,43.99
2022-08-10T09:48:01.423Z,43.69
2022-08-10T09:50:17.969Z,43.56
2022-08-10T09:52:36.016Z,43.18
2022-08-10T09:54:50.219Z,43.07
2022-08-10T09:57:41.477Z,42.90
2022-08-10T10:00:01.621Z,42.93
2022-08-10T10:02:13.414Z,42.75
2022-08-10T10:04:25.766Z,42.42
2022-08-10T10:06:41.137Z,42.23
2022-08-10T10:08:58.325Z,41.71
2022-08-10T10:11:11.124Z,41.79
2022-08-10T10:14:01.869Z,41.93
2022-08-10T10:16:05.110Z,41.99
2022-08-10T10:18:28.336Z,41.63
2022-08-10T10:20:36.499Z,41.29
2022-08-10T10:22:53.750Z,40.84
2022-08-10T10:25:20.781Z,40.67
2022-08-10T10:27:38.416Z,40.74
2022-08-10T10:29:56.853Z,40.87
2022-08-10T10:32:10.117Z,41.25
2022-08-10T10:34:22.784Z,41.31
2022-08-10T10:36:28.261Z,40.79
2022-08-10T10:38:40.307Z,40.33
2022-08-10T10:40:51.030Z,40.55
2022-08-10T10:43:07.180Z,40.24
2022-08-10T10:45:19.600Z,39.57
2022-08-10T10:47:46.687Z,39.31
2022-08-10T10:49:59.689Z,39.49
2022-08-10T10:52:05.231Z,40.12
2022-08-10T10:54:13.383Z,40.64
2022-08-10T10:56:24.794Z,40.15
2022-08-10T10:58:35.749Z,39.81
2022-08-10T11:00:47.291Z,40.02
2022-08-10T11:03:02.763Z,39.79
2022-08-10T11:05:24.942Z,39.93
2022-08-10T11:07:37.407Z,39.62
2022-08-10T11:10:03.349Z,39.77
2022-08-10T11:12:25.406Z,40.15
2022-08-10T11:14:37.550Z,39.78
2022-08-10T11:16:51.716Z,39.44
2022-08-10T11:19:04.989Z,38.93
2022-08-10T11:21:24.509Z,39.11
2022-08-10T11:23:38.468Z,39.61
2022-08-10T11:25:46.115Z,39.99
2022-08-10T11:27:56.998Z,39.46
2022-08-10T11:30:04.988Z,39.25
2022-08-10T11:32:20.583Z,39.36
2022-08-10T11:34:48.699Z,39.10
2022-08-10T11:37:12.303Z,39.67
2022-08-10T11:39:21.180Z,40.40
2022-08-10T11:42:08.929Z,40.37
2022-08-10T11:44:13.340Z,40.09
2022-08-10T11:46:28.663Z,39.71
2022-08-10T11:48:53.415Z,39.47
2022-08-10T11:51:02.808Z,39.83
2022-08-10T11:53:18.816Z,39.75
2022-08-10T11:55:25.529Z,39.78
2022-08-10T11:57:54.293Z,39.77
2022-08-10T11:59:59.311Z,40.07
2022-08-10T12:02:04.274Z,40.07
2022-08-10T12:04:12.220Z,39.92
2022-08-10T12:06:39.210Z,39.86
2022-08-10T12:10:04.378Z,40.03
2022-08-10T12:11:23.976Z,40.24
2022-08-10T12:13:32.530Z,39.89
2022-08-10T12:15:42.328Z,39.23
2022-08-10T12:17:51.546Z,39.53
2022-08-10T12:20:04.516Z,39.85
2022-08-10T12:22:09.101Z,39.47
2022-08-10T12:24:27.450Z,39.90
2022-08-10T12:26:39.232Z,39.45
2022-08-10T12:28:50.937Z,39.47
2022-08-10T12:30:59.559Z,39.35
2022-08-10T12:33:08.049Z,38.84
2022-08-10T12:35:23.698Z,38.82
2022-08-10T12:37:37.104Z,38.86
2022-08-10T12:40:06.914Z,38.51
2022-08-10T12:42:36.920Z,38.37
2022-08-10T12:44:49.748Z,38.98
2022-08-10T12:47:01.495Z,39.18
2022-08-10T12:49:21.636Z,39.79
2022-08-10T12:51:30.667Z,39.89
2022-08-10T12:53:45.598Z,40.01
2022-08-10T12:55:52.620Z,40.07
2022-08-10T12:57:58.904Z,40.23
2022-08-10T13:00:03.734Z,40.66
2022-08-10T13:02:10.891Z,40.76
2022-08-10T13:04:22.737Z,40.36
2022-08-10T13:06:30.803Z,40.92
2022-08-10T13:08:53.233Z,40.78
2022-08-10T13:11:03.338Z,41.08
2022-08-10T13:13:07.661Z,41.32
2022-08-10T13:15:46.223Z,41.19
2022-08-10T13:17:53.241Z,41.13
2022-08-10T13:20:08.177Z,41.16
2022-08-10T13:22:19.211Z,41.29
2022-08-10T13:24:29.070Z,41.44
2022-08-10T13:27:24.722Z,41.28
2022-08-10T13:29:12.706Z,41.14
2022-08-10T13:31:22.240Z,40.89
2022-08-10T13:34:40.732Z,41.26
2022-08-10T13:36:16.578Z,41.16
2022-08-10T13:38:23.432Z,41.12
2022-08-10T13:40:29.073Z,41.37
2022-08-10T13:42:38.157Z,41.46
2022-08-10T13:44:44.143Z,41.42
2022-08-10T13:46:52.869Z,41.27
2022-08-10T13:48:59.529Z,41.01
2022-08-10T13:51:04.597Z,40.85
2022-08-10T13:53:15.233Z,40.93
2022-08-10T13:55:25.296Z,40.58
2022-08-10T13:57:32.528Z,40.72
2022-08-10T14:00:34.326Z,40.68
2022-08-10T14:02:04.536Z,40.55
2022-08-10T14:04:12.740Z,40.38
2022-08-10T14:06:18.829Z,40.27
2022-08-10T14:08:26.920Z,40.51
2022-08-10T14:11:08.979Z,40.39
2022-08-10T14:13:04.778Z,40.37
2022-08-10T14:15:16.270Z,40.15
2022-08-10T14:17:22.296Z,40.22
2022-08-10T14:19:28.445Z,39.98
2022-08-10T14:21:38.853Z,39.68
2022-08-10T14:23:52.302Z,39.39
2022-08-10T14:26:04.119Z,39.67
2022-08-10T14:28:10.733Z,39.76
2022-08-10T14:30:18.390Z,40.11
2022-08-10T14:32:28.188Z,40.03
2022-08-10T14:36:14.937Z,39.83
2022-08-10T14:37:03.935Z,39.78
2022-08-10T14:39:09.741Z,39.65
2022-08-10T14:42:04.500Z,39.35
2022-08-10T14:43:44.588Z,39.54
2022-08-10T14:46:01.407Z,39.48
2022-08-10T14:48:11.557Z,39.96
2022-08-10T14:50:31.643Z,39.68
2022-08-10T14:52:44.263Z,39.11
2022-08-10T14:54:52.889Z,39.10
2022-08-10T14:56:58.315Z,39.19
2022-08-10T14:59:07.594Z,38.95
2022-08-10T15:01:20.980Z,39.12
2022-08-10T15:03:59.544Z,39.22
2022-08-10T15:05:53.388Z,38.78
2022-08-10T15:08:04.106Z,39.15
2022-08-10T15:10:09.921Z,38.69
2022-08-10T15:12:21.890Z,39.17
2022-08-10T15:14:42.653Z,39.39
2022-08-10T15:16:50.260Z,39.41
2022-08-10T15:18:58.663Z,39.10
2022-08-10T15:21:17.309Z,39.28
2022-08-10T15:23:29.826Z,39.30
2022-08-10T15:25:39.431Z,39.48
2022-08-10T15:28:08.270Z,39.50
2022-08-10T15:30:13.730Z,39.38
2022-08-10T15:32:37.227Z,39.79
2022-08-10T15:34:58.906Z,39.57
2022-08-10T15:37:40.336Z,39.44
2022-08-10T15:40:25.091Z,39.93
2022-08-10T15:42:18.904Z,39.99
2022-08-10T15:44:22.886Z,39.82
2022-08-10T15:46:34.958Z,39.79
2022-08-10T15:48:48.288Z,39.76
2022-08-10T15:51:00.614Z,39.89
2022-08-10T15:53:16.673Z,40.01
2022-08-10T15:55:42.883Z,40.11
2022-08-10T15:57:52.175Z,40.10
2022-08-10T16:00:02.151Z,40.01
2022-08-10T16:02:17.428Z,40.22
2022-08-10T16:04:32.324Z,40.21
2022-08-10T16:06:42.042Z,40.24
2022-08-10T16:08:57.057Z,40.13
2022-08-10T16:11:19.202Z,40.10
2022-08-10T16:13:59.608Z,40.43
2022-08-10T16:16:00.020Z,40.45
2022-08-10T16:18:06.099Z,40.60
2022-08-10T16:20:12.691Z,40.82
2022-08-10T16:22:35.883Z,40.58
2022-08-10T16:24:47.577Z,40.39
2022-08-10T16:26:54.362Z,40.54
2022-08-10T16:29:03.189Z,40.81
2022-08-10T16:31:14.717Z,40.63
2022-08-10T16:33:20.833Z,40.75
2022-08-10T16:35:26.165Z,41.14
2022-08-10T16:37:56.700Z,41.09
2022-08-10T16:40:02.518Z,41.24
2022-08-10T16:42:11.668Z,41.01
2022-08-10T16:44:18.350Z,40.98
2022-08-10T16:46:23.778Z,40.99
2022-08-10T16:48:49.763Z,40.97
2022-08-10T16:50:58.306Z,41.01
2022-08-10T16:53:03.618Z,41.28
2022-08-10T16:55:23.464Z,41.23
2022-08-10T16:57:29.918Z,41.37
2022-08-10T16:59:38.458Z,41.33
2022-08-10T17:01:43.584Z,41.26
2022-08-10T17:04:07.743Z,41.21
2022-08-10T17:06:21.353Z,41.26
2022-08-10T17:08:25.807Z,41.40
2022-08-10T17:10:31.143Z,41.44
2022-08-10T17:12:36.068Z,41.29
2022-08-10T17:14:41.705Z,41.12
2022-08-10T17:16:52.160Z,41.23
2022-08-10T17:18:58.728Z,41.13
2022-08-10T17:21:07.837Z,41.13
2022-08-10T17:23:15.807Z,41.19
2022-08-10T17:25:23.078Z,41.24
2022-08-10T17:28:04.240Z,40.88
2022-08-10T17:30:30.044Z,40.90
2022-08-10T17:32:44.441Z,41.21
2022-08-10T17:34:53.288Z,41.40
2022-08-10T17:37:01.094Z,41.30
2022-08-10T17:39:12.695Z,41.45
2022-08-10T17:41:20.039Z,41.56
2022-08-10T17:43:46.129Z,41.68
2022-08-10T17:45:50.721Z,41.52
2022-08-10T17:47:58.671Z,41.31
2022-08-10T17:50:04.008Z,41.31
2022-08-10T17:52:12.152Z,41.31
2022-08-10T17:54:28.177Z,41.22
2022-08-10T17:56:35.110Z,41.66
2022-08-10T17:58:48.671Z,41.52
2022-08-10T18:00:55.839Z,41.58
2022-08-10T18:03:01.206Z,41.67
2022-08-10T18:05:09.878Z,41.52
2022-08-10T18:07:15.286Z,41.34
2022-08-10T18:09:30.986Z,41.43
2022-08-10T18:11:42.209Z,41.50
2022-08-10T18:13:55.450Z,41.65
2022-08-10T18:16:00.518Z,41.75
2022-08-10T18:18:04.892Z,41.93
2022-08-10T18:20:11.121Z,42.20
2022-08-10T18:22:17.380Z,42.00
2022-08-10T18:24:23.147Z,42.09
2022-08-10T18:26:28.293Z,42.16
2022-08-10T18:28:34.459Z,42.19
2022-08-10T18:30:50.510Z,42.30
2022-08-10T18:32:58.102Z,42.55
2022-08-10T18:35:04.725Z,42.71
2022-08-10T18:37:10.414Z,42.72
2022-08-10T18:39:17.139Z,42.89
2022-08-10T18:41:24.831Z,42.92
2022-08-10T18:44:07.238Z,43.15
2022-08-10T18:46:03.610Z,43.19
2022-08-10T18:48:12.825Z,43.28
2022-08-10T18:50:23.250Z,43.30
2022-08-10T18:52:29.573Z,43.52
2022-08-10T18:54:44.941Z,43.40
2022-08-10T18:56:58.923Z,43.60
2022-08-10T18:59:13.021Z,43.48
2022-08-10T19:01:34.052Z,43.42
2022-08-10T19:04:04.910Z,43.32
2022-08-10T19:06:20.913Z,43.18
2022-08-10T19:08:57.847Z,43.11
2022-08-10T19:11:07.378Z,43.49
2022-08-10T19:13:21.343Z,43.72
2022-08-10T19:15:44.258Z,43.94
2022-08-10T19:18:03.948Z,44.00
2022-08-10T19:20:20.345Z,44.13
2022-08-10T19:22:29.100Z,44.15
2022-08-10T19:24:45.341Z,44.32
2022-08-10T19:26:55.958Z,44.55
2022-08-10T19:29:47.369Z,44.77
2022-08-10T19:31:51.953Z,44.76
2022-08-10T19:34:11.483Z,45.05
2022-08-10T19:36:34.783Z,45.36
2022-08-10T19:38:49.526Z,45.60
2022-08-10T19:41:09.921Z,45.79
2022-08-10T19:43:20.772Z,46.07
2022-08-10T19:46:02.655Z,46.45
2022-08-10T19:48:17.465Z,46.53
2022-08-10T19:50:25.665Z,46.72
2022-08-10T19:52:39.247Z,46.71
2022-08-10T19:54:53.696Z,47.06
2022-08-10T19:57:06.961Z,47.33
2022-08-10T20:00:15.165Z,47.50
2022-08-10T20:01:55.040Z,47.62
2022-08-10T20:04:06.294Z,48.18
2022-08-10T20:06:18.830Z,48.40
2022-08-10T20:08:29.660Z,48.64
2022-08-10T20:10:44.023Z,49.07
2022-08-10T20:12:58.041Z,49.55
2022-08-10T20:15:08.860Z,49.61
2022-08-10T20:17:24.761Z,50.08
2022-08-10T20:19:52.520Z,50.16
2022-08-10T20:22:03.559Z,50.31
2022-08-10T20:24:12.549Z,50.48
2022-08-10T20:26:21.078Z,50.60
2022-08-10T20:28:33.180Z,50.84
2022-08-10T20:30:42.803Z,50.95
2022-08-10T20:32:52.569Z,51.39
2022-08-10T20:35:05.953Z,51.46
2022-08-10T20:37:45.059Z,51.68
2022-08-10T20:40:09.773Z,51.93
2022-08-10T20:42:19.636Z,52.38
2022-08-10T20:44:40.723Z,52.58
2022-08-10T20:46:49.605Z,52.67
2022-08-10T20:49:00.053Z,52.64
2022-08-10T20:51:07.903Z,53.27
2022-08-10T20:53:15.624Z,53.56
2022-08-10T20:55:21.179Z,53.75
2022-08-10T20:57:57.570Z,54.21
2022-08-10T21:00:08.092Z,54.66
2022-08-10T21:02:32.316Z,54.73
2022-08-10T21:04:49.147Z,55.08
2022-08-10T21:07:22.079Z,55.85
2022-08-10T21:09:57.425Z,55.58
2022-08-10T21:12:28.262Z,56.12
2022-08-10T21:14:45.535Z,56.07
2022-08-10T21:17:06.997Z,56.26
2022-08-10T21:19:34.941Z,56.56
2022-08-10T21:22:04.415Z,56.91
2022-08-10T21:24:19.980Z,56.56
2022-08-10T21:26:30.829Z,56.74
2022-08-10T21:29:20.447Z,57.54
2022-08-10T21:31:36.226Z,57.66
2022-08-10T21:33:54.023Z,57.81
2022-08-10T21:36:08.980Z,58.33
2022-08-10T21:38:26.763Z,58.84
2022-08-10T21:40:44.066Z,59.20
2022-08-10T21:43:44.737Z,59.46
2022-08-10T21:46:23.710Z,59.67
2022-08-10T21:48:58.923Z,59.80
2022-08-10T21:52:01.280Z,60.26
2022-08-10T21:54:27.875Z,60.16
2022-08-10T21:56:54.483Z,59.71
2022-08-10T21:59:21.647Z,59.97
2022-08-10T22:01:51.618Z,60.20
2022-08-10T22:04:14.099Z,60.16
2022-08-10T22:06:52.362Z,60.33
2022-08-10T22:09:17.929Z,60.56
2022-08-10T22:11:45.486Z,61.06
2022-08-10T22:14:09.984Z,61.17
2022-08-10T22:16:42.455Z,61.10
2022-08-10T22:19:13.496Z,61.19
2022-08-10T22:21:48.183Z,61.37
2022-08-10T22:24:22.960Z,61.69
2022-08-10T22:27:06.821Z,61.66
2022-08-10T22:29:42.407Z,61.79
2022-08-10T22:32:22.396Z,61.87
2022-08-10T22:35:09.931Z,62.43
2022-08-10T22:37:43.579Z,62.37
2022-08-10T22:40:17.260Z,62.43
2022-08-10T22:42:58.089Z,62.56
2022-08-10T22:45:26.305Z,62.67
2022-08-10T22:47:51.037Z,62.88
2022-08-10T22:49:54.076Z,63.04
2022-08-10T22:52:12.633Z,63.29
2022-08-10T22:54:39.168Z,63.42
2022-08-10T22:57:00.714Z,63.88
2022-08-10T22:59:06.237Z,64.26
2022-08-10T23:01:36.434Z,64.71
2022-08-10T23:03:47.513Z,65.03
2022-08-10T23:06:00.414Z,65.36
2022-08-10T23:08:29.998Z,65.68
2022-08-10T23:10:40.695Z,65.17
2022-08-10T23:12:49.915Z,65.63
2022-08-10T23:15:13.737Z,65.96
2022-08-10T23:18:00.980Z,65.33
2022-08-10T23:20:08.653Z,65.23
2022-08-10T23:22:15.027Z,65.04
2022-08-10T23:24:26.970Z,65.57
2022-08-10T23:26:34.346Z,65.32
2022-08-10T23:28:58.865Z,65.28
2022-08-10T23:31:11.572Z,65.23
2022-08-10T23:33:17.340Z,65.37
2022-08-10T23:36:27.751Z,65.15
2022-08-10T23:38:13.824Z,65.55
2022-08-10T23:40:21.403Z,65.51
2022-08-10T23:42:27.031Z,65.61
2022-08-10T23:44:36.841Z,65.60
2022-08-10T23:46:43.840Z,65.60
2022-08-10T23:48:49.547Z,66.08
2022-08-10T23:50:58.394Z,66.40
2022-08-10T23:53:13.519Z,66.56
2022-08-10T23:55:24.881Z,66.87
2022-08-10T23:57:30.600Z,67.11
2022-08-10T23:59:35.010Z,67.34
